sensor_id;sensor_type;location;lat;lon;timestamp;P1;durP1;ratioP1;P2;durP2;ratioP2
12910;SDS011;6523;49.758;6.120;2023-06-10T00:01:37;7.00;;;6.40;;
12910;SDS011;6523;49.758;6.120;2023-06-10T00:04:03;7.20;;;6.50;;
12910;SDS011;6523;49.758;6.120;2023-06-10T00:06:29;8.73;;;6.70;;
12910;SDS011;6523;49.758;6.120;2023-06-10T00:09:04;8.13;;;7.33;;
12910;SDS011;6523;49.758;6.120;2023-06-10T00:11:31;7.33;;;6.73;;
12910;SDS011;6523;49.758;6.120;2023-06-10T00:13:57;7.37;;;6.77;;
12910;SDS011;6523;49.758;6.120;2023-06-10T00:16:23;7.60;;;6.90;;
12910;SDS011;6523;49.758;6.120;2023-06-10T00:18:49;7.73;;;7.13;;
12910;SDS011;6523;49.758;6.120;2023-06-10T00:21:16;8.83;;;7.93;;
12910;SDS011;6523;49.758;6.120;2023-06-10T00:23:42;7.23;;;6.60;;
12910;SDS011;6523;49.758;6.120;2023-06-10T00:26:08;7.90;;;7.20;;
12910;SDS011;6523;49.758;6.120;2023-06-10T00:28:34;7.60;;;6.90;;
12910;SDS011;6523;49.758;6.120;2023-06-10T00:31:00;8.10;;;7.50;;
12910;SDS011;6523;49.758;6.120;2023-06-10T00:33:26;7.40;;;6.73;;
12910;SDS011;6523;49.758;6.120;2023-06-10T00:35:52;8.00;;;7.20;;
12910;SDS011;6523;49.758;6.120;2023-06-10T00:38:17;7.63;;;6.93;;
12910;SDS011;6523;49.758;6.120;2023-06-10T00:40:43;8.57;;;7.77;;
12910;SDS011;6523;49.758;6.120;2023-06-10T00:43:08;8.67;;;7.97;;
12910;SDS011;6523;49.758;6.120;2023-06-10T00:45:34;9.47;;;8.50;;
12910;SDS011;6523;49.758;6.120;2023-06-10T00:48:00;8.70;;;8.00;;
12910;SDS011;6523;49.758;6.120;2023-06-10T00:50:27;7.97;;;7.27;;
12910;SDS011;6523;49.758;6.120;2023-06-10T00:52:55;10.00;;;9.10;;
12910;SDS011;6523;49.758;6.120;2023-06-10T00:55:21;9.47;;;8.67;;
12910;SDS011;6523;49.758;6.120;2023-06-10T00:57:48;9.43;;;8.53;;
12910;SDS011;6523;49.758;6.120;2023-06-10T01:00:14;9.23;;;8.33;;
12910;SDS011;6523;49.758;6.120;2023-06-10T01:02:41;10.03;;;8.37;;
12910;SDS011;6523;49.758;6.120;2023-06-10T01:05:07;9.20;;;8.40;;
12910;SDS011;6523;49.758;6.120;2023-06-10T01:10:24;8.83;;;8.03;;
12910;SDS011;6523;49.758;6.120;2023-06-10T01:13:00;8.97;;;8.17;;
12910;SDS011;6523;49.758;6.120;2023-06-10T01:15:31;9.03;;;8.23;;
12910;SDS011;6523;49.758;6.120;2023-06-10T01:17:57;9.90;;;8.97;;
12910;SDS011;6523;49.758;6.120;2023-06-10T01:20:28;9.10;;;8.27;;
12910;SDS011;6523;49.758;6.120;2023-06-10T01:22:57;9.20;;;8.40;;
12910;SDS011;6523;49.758;6.120;2023-06-10T01:25:24;8.57;;;7.83;;
12910;SDS011;6523;49.758;6.120;2023-06-10T01:31:02;9.80;;;9.00;;
12910;SDS011;6523;49.758;6.120;2023-06-10T01:33:33;9.60;;;8.70;;
12910;SDS011;6523;49.758;6.120;2023-06-10T01:36:01;10.00;;;8.97;;
12910;SDS011;6523;49.758;6.120;2023-06-10T01:38:29;9.20;;;8.40;;
12910;SDS011;6523;49.758;6.120;2023-06-10T01:40:58;9.47;;;8.57;;
12910;SDS011;6523;49.758;6.120;2023-06-10T01:43:24;8.87;;;8.07;;
12910;SDS011;6523;49.758;6.120;2023-06-10T01:45:50;9.50;;;8.70;;
12910;SDS011;6523;49.758;6.120;2023-06-10T01:48:16;9.50;;;8.60;;
12910;SDS011;6523;49.758;6.120;2023-06-10T01:50:41;9.13;;;8.20;;
12910;SDS011;6523;49.758;6.120;2023-06-10T01:53:08;10.23;;;9.33;;
12910;SDS011;6523;49.758;6.120;2023-06-10T01:55:34;9.80;;;9.00;;
12910;SDS011;6523;49.758;6.120;2023-06-10T01:57:59;12.13;;;9.27;;
12910;SDS011;6523;49.758;6.120;2023-06-10T02:00:25;10.17;;;9.17;;
12910;SDS011;6523;49.758;6.120;2023-06-10T02:02:51;9.47;;;8.53;;
12910;SDS011;6523;49.758;6.120;2023-06-10T02:05:16;9.30;;;8.50;;
12910;SDS011;6523;49.758;6.120;2023-06-10T02:07:42;9.47;;;8.57;;
12910;SDS011;6523;49.758;6.120;2023-06-10T02:10:07;9.97;;;9.17;;
12910;SDS011;6523;49.758;6.120;2023-06-10T02:12:33;10.17;;;9.37;;
12910;SDS011;6523;49.758;6.120;2023-06-10T02:14:59;10.53;;;9.63;;
12910;SDS011;6523;49.758;6.120;2023-06-10T02:17:24;9.90;;;9.00;;
12910;SDS011;6523;49.758;6.120;2023-06-10T02:19:51;10.83;;;9.77;;
12910;SDS011;6523;49.758;6.120;2023-06-10T02:22:20;9.97;;;9.13;;
12910;SDS011;6523;49.758;6.120;2023-06-10T02:24:46;11.00;;;10.00;;
12910;SDS011;6523;49.758;6.120;2023-06-10T02:27:12;11.23;;;10.23;;
12910;SDS011;6523;49.758;6.120;2023-06-10T02:29:37;10.33;;;9.43;;
12910;SDS011;6523;49.758;6.120;2023-06-10T02:32:03;10.30;;;9.40;;
12910;SDS011;6523;49.758;6.120;2023-06-10T02:34:29;10.33;;;9.47;;
12910;SDS011;6523;49.758;6.120;2023-06-10T02:36:54;10.47;;;9.60;;
12910;SDS011;6523;49.758;6.120;2023-06-10T02:39:21;11.07;;;10.07;;
12910;SDS011;6523;49.758;6.120;2023-06-10T02:41:47;10.17;;;9.20;;
12910;SDS011;6523;49.758;6.120;2023-06-10T02:44:12;10.37;;;9.47;;
12910;SDS011;6523;49.758;6.120;2023-06-10T02:46:38;11.30;;;10.40;;
12910;SDS011;6523;49.758;6.120;2023-06-10T02:49:03;11.50;;;10.30;;
12910;SDS011;6523;49.758;6.120;2023-06-10T02:51:29;11.23;;;10.23;;
12910;SDS011;6523;49.758;6.120;2023-06-10T02:53:54;11.60;;;10.60;;
12910;SDS011;6523;49.758;6.120;2023-06-10T02:56:20;16.47;;;14.87;;
12910;SDS011;6523;49.758;6.120;2023-06-10T02:58:46;16.40;;;14.70;;
12910;SDS011;6523;49.758;6.120;2023-06-10T03:01:13;13.93;;;12.73;;
12910;SDS011;6523;49.758;6.120;2023-06-10T03:03:38;10.83;;;9.87;;
12910;SDS011;6523;49.758;6.120;2023-06-10T03:06:07;11.37;;;10.30;;
12910;SDS011;6523;49.758;6.120;2023-06-10T03:08:35;11.83;;;10.63;;
12910;SDS011;6523;49.758;6.120;2023-06-10T03:11:01;10.83;;;9.83;;
12910;SDS011;6523;49.758;6.120;2023-06-10T03:13:26;11.37;;;10.37;;
12910;SDS011;6523;49.758;6.120;2023-06-10T03:15:52;11.27;;;10.23;;
12910;SDS011;6523;49.758;6.120;2023-06-10T03:18:18;10.93;;;9.87;;
12910;SDS011;6523;49.758;6.120;2023-06-10T03:20:43;10.93;;;9.93;;
12910;SDS011;6523;49.758;6.120;2023-06-10T03:23:09;10.63;;;9.67;;
12910;SDS011;6523;49.758;6.120;2023-06-10T03:25:35;11.03;;;10.03;;
12910;SDS011;6523;49.758;6.120;2023-06-10T03:28:01;11.67;;;10.67;;
12910;SDS011;6523;49.758;6.120;2023-06-10T03:30:27;11.57;;;10.47;;
12910;SDS011;6523;49.758;6.120;2023-06-10T03:32:53;10.77;;;9.87;;
12910;SDS011;6523;49.758;6.120;2023-06-10T03:35:18;10.80;;;9.80;;
12910;SDS011;6523;49.758;6.120;2023-06-10T03:37:44;10.93;;;9.60;;
12910;SDS011;6523;49.758;6.120;2023-06-10T03:40:10;11.33;;;10.43;;
12910;SDS011;6523;49.758;6.120;2023-06-10T03:42:36;11.20;;;10.20;;
12910;SDS011;6523;49.758;6.120;2023-06-10T03:45:02;11.03;;;9.93;;
12910;SDS011;6523;49.758;6.120;2023-06-10T03:47:38;10.97;;;10.00;;
12910;SDS011;6523;49.758;6.120;2023-06-10T03:50:05;11.67;;;10.57;;
12910;SDS011;6523;49.758;6.120;2023-06-10T03:52:31;11.30;;;10.20;;
12910;SDS011;6523;49.758;6.120;2023-06-10T03:54:57;11.53;;;10.33;;
12910;SDS011;6523;49.758;6.120;2023-06-10T03:57:23;11.93;;;10.83;;
12910;SDS011;6523;49.758;6.120;2023-06-10T03:59:48;10.93;;;9.97;;
12910;SDS011;6523;49.758;6.120;2023-06-10T04:02:17;11.67;;;10.60;;
12910;SDS011;6523;49.758;6.120;2023-06-10T04:04:42;10.93;;;9.93;;
12910;SDS011;6523;49.758;6.120;2023-06-10T04:07:08;11.87;;;10.77;;
12910;SDS011;6523;49.758;6.120;2023-06-10T04:09:34;11.20;;;10.20;;
12910;SDS011;6523;49.758;6.120;2023-06-10T04:12:00;11.17;;;10.13;;
12910;SDS011;6523;49.758;6.120;2023-06-10T04:14:26;11.47;;;10.47;;
12910;SDS011;6523;49.758;6.120;2023-06-10T04:16:52;11.63;;;10.53;;
12910;SDS011;6523;49.758;6.120;2023-06-10T04:19:18;11.93;;;10.70;;
12910;SDS011;6523;49.758;6.120;2023-06-10T04:21:43;11.63;;;10.63;;
12910;SDS011;6523;49.758;6.120;2023-06-10T04:24:09;11.53;;;10.63;;
12910;SDS011;6523;49.758;6.120;2023-06-10T04:26:35;11.93;;;10.87;;
12910;SDS011;6523;49.758;6.120;2023-06-10T04:29:00;11.63;;;10.50;;
12910;SDS011;6523;49.758;6.120;2023-06-10T04:31:26;12.47;;;11.37;;
12910;SDS011;6523;49.758;6.120;2023-06-10T04:33:52;11.37;;;10.27;;
12910;SDS011;6523;49.758;6.120;2023-06-10T04:36:18;11.30;;;10.23;;
12910;SDS011;6523;49.758;6.120;2023-06-10T04:38:44;11.70;;;10.60;;
12910;SDS011;6523;49.758;6.120;2023-06-10T04:41:09;10.93;;;9.97;;
12910;SDS011;6523;49.758;6.120;2023-06-10T04:43:35;10.93;;;9.83;;
12910;SDS011;6523;49.758;6.120;2023-06-10T04:46:00;10.80;;;9.90;;
12910;SDS011;6523;49.758;6.120;2023-06-10T04:48:26;11.33;;;10.33;;
12910;SDS011;6523;49.758;6.120;2023-06-10T04:50:52;11.07;;;10.07;;
12910;SDS011;6523;49.758;6.120;2023-06-10T04:53:17;11.40;;;10.40;;
12910;SDS011;6523;49.758;6.120;2023-06-10T04:55:43;11.77;;;10.57;;
12910;SDS011;6523;49.758;6.120;2023-06-10T04:58:09;11.77;;;10.63;;
12910;SDS011;6523;49.758;6.120;2023-06-10T05:00:34;10.10;;;9.30;;
12910;SDS011;6523;49.758;6.120;2023-06-10T05:03:00;11.57;;;9.60;;
12910;SDS011;6523;49.758;6.120;2023-06-10T05:05:25;11.00;;;10.07;;
12910;SDS011;6523;49.758;6.120;2023-06-10T05:07:51;11.67;;;10.67;;
12910;SDS011;6523;49.758;6.120;2023-06-10T05:10:16;11.00;;;10.10;;
12910;SDS011;6523;49.758;6.120;2023-06-10T05:12:42;12.43;;;11.33;;
12910;SDS011;6523;49.758;6.120;2023-06-10T05:15:08;11.50;;;10.50;;
12910;SDS011;6523;49.758;6.120;2023-06-10T05:17:34;10.77;;;9.70;;
12910;SDS011;6523;49.758;6.120;2023-06-10T05:20:03;10.57;;;9.40;;
12910;SDS011;6523;49.758;6.120;2023-06-10T05:22:29;11.13;;;10.23;;
12910;SDS011;6523;49.758;6.120;2023-06-10T05:24:55;11.43;;;10.40;;
12910;SDS011;6523;49.758;6.120;2023-06-10T05:27:21;12.17;;;11.13;;
12910;SDS011;6523;49.758;6.120;2023-06-10T05:29:47;11.57;;;10.57;;
12910;SDS011;6523;49.758;6.120;2023-06-10T05:32:12;11.20;;;10.20;;
12910;SDS011;6523;49.758;6.120;2023-06-10T05:34:38;12.00;;;10.90;;
12910;SDS011;6523;49.758;6.120;2023-06-10T05:37:04;11.20;;;10.20;;
12910;SDS011;6523;49.758;6.120;2023-06-10T05:39:30;12.37;;;11.17;;
12910;SDS011;6523;49.758;6.120;2023-06-10T05:41:55;12.23;;;11.07;;
12910;SDS011;6523;49.758;6.120;2023-06-10T05:44:23;11.90;;;10.77;;
12910;SDS011;6523;49.758;6.120;2023-06-10T05:46:49;12.57;;;11.13;;
12910;SDS011;6523;49.758;6.120;2023-06-10T05:49:15;12.20;;;11.10;;
12910;SDS011;6523;49.758;6.120;2023-06-10T05:51:40;12.03;;;10.93;;
12910;SDS011;6523;49.758;6.120;2023-06-10T05:54:06;11.60;;;10.47;;
12910;SDS011;6523;49.758;6.120;2023-06-10T05:56:32;12.57;;;11.27;;
12910;SDS011;6523;49.758;6.120;2023-06-10T05:58:57;11.73;;;10.57;;
12910;SDS011;6523;49.758;6.120;2023-06-10T06:01:23;12.30;;;11.10;;
12910;SDS011;6523;49.758;6.120;2023-06-10T06:03:48;11.27;;;10.23;;
12910;SDS011;6523;49.758;6.120;2023-06-10T06:06:14;10.97;;;9.93;;
12910;SDS011;6523;49.758;6.120;2023-06-10T06:08:39;10.50;;;9.43;;
12910;SDS011;6523;49.758;6.120;2023-06-10T06:11:05;9.50;;;8.67;;
12910;SDS011;6523;49.758;6.120;2023-06-10T06:13:30;9.63;;;8.73;;
12910;SDS011;6523;49.758;6.120;2023-06-10T06:15:56;9.43;;;8.63;;
12910;SDS011;6523;49.758;6.120;2023-06-10T06:18:21;9.67;;;8.87;;
12910;SDS011;6523;49.758;6.120;2023-06-10T06:20:47;9.40;;;8.50;;
12910;SDS011;6523;49.758;6.120;2023-06-10T06:23:13;9.53;;;8.10;;
12910;SDS011;6523;49.758;6.120;2023-06-10T06:25:38;9.77;;;8.67;;
12910;SDS011;6523;49.758;6.120;2023-06-10T06:28:05;9.00;;;8.17;;
12910;SDS011;6523;49.758;6.120;2023-06-10T06:30:32;8.90;;;8.07;;
12910;SDS011;6523;49.758;6.120;2023-06-10T06:32:57;9.17;;;8.27;;
12910;SDS011;6523;49.758;6.120;2023-06-10T06:35:23;8.40;;;7.60;;
12910;SDS011;6523;49.758;6.120;2023-06-10T06:37:48;9.23;;;7.87;;
12910;SDS011;6523;49.758;6.120;2023-06-10T06:40:14;10.17;;;8.20;;
12910;SDS011;6523;49.758;6.120;2023-06-10T06:42:40;8.43;;;7.73;;
12910;SDS011;6523;49.758;6.120;2023-06-10T06:45:06;8.67;;;7.87;;
12910;SDS011;6523;49.758;6.120;2023-06-10T06:47:32;8.87;;;8.07;;
12910;SDS011;6523;49.758;6.120;2023-06-10T06:49:57;8.00;;;7.30;;
12910;SDS011;6523;49.758;6.120;2023-06-10T06:52:23;8.90;;;7.60;;
12910;SDS011;6523;49.758;6.120;2023-06-10T06:54:49;7.90;;;7.13;;
12910;SDS011;6523;49.758;6.120;2023-06-10T06:57:14;7.80;;;7.20;;
12910;SDS011;6523;49.758;6.120;2023-06-10T06:59:40;8.00;;;7.20;;
12910;SDS011;6523;49.758;6.120;2023-06-10T07:02:06;9.23;;;8.33;;
12910;SDS011;6523;49.758;6.120;2023-06-10T07:04:31;7.83;;;7.13;;
12910;SDS011;6523;49.758;6.120;2023-06-10T07:06:57;7.90;;;7.20;;
12910;SDS011;6523;49.758;6.120;2023-06-10T07:09:22;7.80;;;7.10;;
12910;SDS011;6523;49.758;6.120;2023-06-10T07:11:48;7.97;;;7.23;;
12910;SDS011;6523;49.758;6.120;2023-06-10T07:14:13;8.10;;;7.40;;
12910;SDS011;6523;49.758;6.120;2023-06-10T07:16:39;7.47;;;6.77;;
12910;SDS011;6523;49.758;6.120;2023-06-10T07:19:04;7.90;;;7.07;;
12910;SDS011;6523;49.758;6.120;2023-06-10T07:21:30;7.63;;;6.93;;
12910;SDS011;6523;49.758;6.120;2023-06-10T07:23:57;7.37;;;6.67;;
12910;SDS011;6523;49.758;6.120;2023-06-10T07:26:23;9.43;;;6.63;;
12910;SDS011;6523;49.758;6.120;2023-06-10T07:28:48;7.67;;;7.07;;
12910;SDS011;6523;49.758;6.120;2023-06-10T07:31:14;7.93;;;6.80;;
12910;SDS011;6523;49.758;6.120;2023-06-10T07:33:39;7.10;;;6.50;;
12910;SDS011;6523;49.758;6.120;2023-06-10T07:36:05;7.60;;;6.90;;
12910;SDS011;6523;49.758;6.120;2023-06-10T07:38:31;6.70;;;6.10;;
12910;SDS011;6523;49.758;6.120;2023-06-10T07:40:57;6.50;;;5.90;;
12910;SDS011;6523;49.758;6.120;2023-06-10T07:43:23;6.43;;;5.93;;
12910;SDS011;6523;49.758;6.120;2023-06-10T07:45:49;6.43;;;5.93;;
12910;SDS011;6523;49.758;6.120;2023-06-10T07:48:14;6.50;;;5.90;;
12910;SDS011;6523;49.758;6.120;2023-06-10T07:50:40;6.80;;;5.87;;
12910;SDS011;6523;49.758;6.120;2023-06-10T07:53:06;6.63;;;5.87;;
12910;SDS011;6523;49.758;6.120;2023-06-10T07:55:31;5.83;;;5.33;;
12910;SDS011;6523;49.758;6.120;2023-06-10T07:57:57;7.90;;;6.60;;
12910;SDS011;6523;49.758;6.120;2023-06-10T08:00:22;6.63;;;6.13;;
12910;SDS011;6523;49.758;6.120;2023-06-10T08:02:48;5.63;;;5.13;;
12910;SDS011;6523;49.758;6.120;2023-06-10T08:05:14;6.17;;;5.60;;
12910;SDS011;6523;49.758;6.120;2023-06-10T08:07:40;5.57;;;5.17;;
12910;SDS011;6523;49.758;6.120;2023-06-10T08:10:06;6.40;;;5.43;;
12910;SDS011;6523;49.758;6.120;2023-06-10T08:12:35;6.50;;;5.90;;
12910;SDS011;6523;49.758;6.120;2023-06-10T08:15:01;6.40;;;5.80;;
12910;SDS011;6523;49.758;6.120;2023-06-10T08:17:29;6.53;;;6.00;;
12910;SDS011;6523;49.758;6.120;2023-06-10T08:19:57;6.60;;;6.10;;
12910;SDS011;6523;49.758;6.120;2023-06-10T08:22:23;6.50;;;6.00;;
12910;SDS011;6523;49.758;6.120;2023-06-10T08:24:48;6.13;;;5.73;;
12910;SDS011;6523;49.758;6.120;2023-06-10T08:27:14;6.63;;;5.67;;
12910;SDS011;6523;49.758;6.120;2023-06-10T08:29:40;6.30;;;5.80;;
12910;SDS011;6523;49.758;6.120;2023-06-10T08:32:06;6.50;;;5.93;;
12910;SDS011;6523;49.758;6.120;2023-06-10T08:34:35;7.17;;;5.97;;
12910;SDS011;6523;49.758;6.120;2023-06-10T08:37:01;6.43;;;5.93;;
12910;SDS011;6523;49.758;6.120;2023-06-10T08:39:27;7.90;;;5.90;;
12910;SDS011;6523;49.758;6.120;2023-06-10T08:44:36;5.50;;;5.00;;
12910;SDS011;6523;49.758;6.120;2023-06-10T08:47:06;6.23;;;5.57;;
12910;SDS011;6523;49.758;6.120;2023-06-10T08:49:38;6.00;;;5.47;;
12910;SDS011;6523;49.758;6.120;2023-06-10T08:52:06;6.10;;;5.50;;
12910;SDS011;6523;49.758;6.120;2023-06-10T08:54:33;6.40;;;5.80;;
12910;SDS011;6523;49.758;6.120;2023-06-10T08:57:02;7.47;;;6.77;;
12910;SDS011;6523;49.758;6.120;2023-06-10T08:59:30;7.10;;;6.43;;
12910;SDS011;6523;49.758;6.120;2023-06-10T09:01:56;6.93;;;6.43;;
12910;SDS011;6523;49.758;6.120;2023-06-10T09:04:23;6.63;;;6.03;;
12910;SDS011;6523;49.758;6.120;2023-06-10T09:06:49;8.03;;;6.33;;
12910;SDS011;6523;49.758;6.120;2023-06-10T09:09:16;6.73;;;6.00;;
12910;SDS011;6523;49.758;6.120;2023-06-10T09:11:42;6.83;;;6.23;;
12910;SDS011;6523;49.758;6.120;2023-06-10T09:14:08;7.20;;;5.90;;
12910;SDS011;6523;49.758;6.120;2023-06-10T09:16:34;6.87;;;6.27;;
12910;SDS011;6523;49.758;6.120;2023-06-10T09:19:00;6.20;;;5.60;;
12910;SDS011;6523;49.758;6.120;2023-06-10T09:21:26;6.60;;;6.00;;
12910;SDS011;6523;49.758;6.120;2023-06-10T09:23:52;5.83;;;5.30;;
12910;SDS011;6523;49.758;6.120;2023-06-10T09:26:18;6.03;;;5.63;;
12910;SDS011;6523;49.758;6.120;2023-06-10T09:28:44;6.73;;;5.63;;
12910;SDS011;6523;49.758;6.120;2023-06-10T09:31:13;6.00;;;5.57;;
12910;SDS011;6523;49.758;6.120;2023-06-10T09:33:39;6.30;;;5.80;;
12910;SDS011;6523;49.758;6.120;2023-06-10T09:36:05;5.37;;;4.97;;
12910;SDS011;6523;49.758;6.120;2023-06-10T09:38:31;6.60;;;6.10;;
12910;SDS011;6523;49.758;6.120;2023-06-10T09:41:00;5.93;;;5.40;;
12910;SDS011;6523;49.758;6.120;2023-06-10T09:43:43;6.10;;;5.37;;
12910;SDS011;6523;49.758;6.120;2023-06-10T09:46:14;6.33;;;4.90;;
12910;SDS011;6523;49.758;6.120;2023-06-10T09:48:41;5.50;;;5.10;;
12910;SDS011;6523;49.758;6.120;2023-06-10T09:51:11;4.97;;;4.67;;
12910;SDS011;6523;49.758;6.120;2023-06-10T09:53:38;5.67;;;5.17;;
12910;SDS011;6523;49.758;6.120;2023-06-10T09:56:04;4.97;;;4.57;;
12910;SDS011;6523;49.758;6.120;2023-06-10T09:58:37;5.77;;;4.90;;
12910;SDS011;6523;49.758;6.120;2023-06-10T10:01:04;5.63;;;5.23;;
12910;SDS011;6523;49.758;6.120;2023-06-10T10:03:43;5.20;;;4.80;;
12910;SDS011;6523;49.758;6.120;2023-06-10T10:06:15;5.90;;;5.10;;
12910;SDS011;6523;49.758;6.120;2023-06-10T10:08:41;5.67;;;5.07;;
12910;SDS011;6523;49.758;6.120;2023-06-10T10:11:08;5.03;;;4.73;;
12910;SDS011;6523;49.758;6.120;2023-06-10T10:13:34;5.97;;;5.03;;
12910;SDS011;6523;49.758;6.120;2023-06-10T10:16:01;6.10;;;4.93;;
12910;SDS011;6523;49.758;6.120;2023-06-10T10:18:52;5.67;;;5.17;;
12910;SDS011;6523;49.758;6.120;2023-06-10T10:21:27;5.77;;;5.27;;
12910;SDS011;6523;49.758;6.120;2023-06-10T10:24:16;5.63;;;5.23;;
12910;SDS011;6523;49.758;6.120;2023-06-10T10:26:46;5.90;;;5.40;;
12910;SDS011;6523;49.758;6.120;2023-06-10T10:29:30;5.20;;;4.80;;
12910;SDS011;6523;49.758;6.120;2023-06-10T10:32:01;6.83;;;4.93;;
12910;SDS011;6523;49.758;6.120;2023-06-10T10:34:30;6.93;;;5.03;;
12910;SDS011;6523;49.758;6.120;2023-06-10T10:37:00;8.13;;;5.47;;
12910;SDS011;6523;49.758;6.120;2023-06-10T10:39:26;6.30;;;5.70;;
12910;SDS011;6523;49.758;6.120;2023-06-10T10:41:53;5.87;;;5.27;;
12910;SDS011;6523;49.758;6.120;2023-06-10T10:44:19;5.70;;;5.23;;
12910;SDS011;6523;49.758;6.120;2023-06-10T10:46:49;4.93;;;4.57;;
12910;SDS011;6523;49.758;6.120;2023-06-10T10:49:15;5.63;;;5.20;;
12910;SDS011;6523;49.758;6.120;2023-06-10T10:51:58;5.30;;;4.90;;
12910;SDS011;6523;49.758;6.120;2023-06-10T10:54:31;6.07;;;5.53;;
12910;SDS011;6523;49.758;6.120;2023-06-10T10:59:56;5.20;;;4.80;;
12910;SDS011;6523;49.758;6.120;2023-06-10T11:02:42;5.57;;;5.10;;
12910;SDS011;6523;49.758;6.120;2023-06-10T11:05:12;4.97;;;4.67;;
12910;SDS011;6523;49.758;6.120;2023-06-10T11:07:39;5.83;;;5.33;;
12910;SDS011;6523;49.758;6.120;2023-06-10T11:10:06;5.67;;;5.17;;
12910;SDS011;6523;49.758;6.120;2023-06-10T11:12:49;5.03;;;4.63;;
12910;SDS011;6523;49.758;6.120;2023-06-10T11:15:24;5.40;;;4.90;;
12910;SDS011;6523;49.758;6.120;2023-06-10T11:18:06;5.70;;;5.20;;
12910;SDS011;6523;49.758;6.120;2023-06-10T11:29:22;5.10;;;4.70;;
12910;SDS011;6523;49.758;6.120;2023-06-10T11:31:23;5.90;;;5.30;;
12910;SDS011;6523;49.758;6.120;2023-06-10T11:33:54;5.47;;;4.97;;
12910;SDS011;6523;49.758;6.120;2023-06-10T11:36:21;5.07;;;4.67;;
12910;SDS011;6523;49.758;6.120;2023-06-10T11:38:48;5.40;;;4.90;;
12910;SDS011;6523;49.758;6.120;2023-06-10T11:41:14;6.47;;;5.27;;
12910;SDS011;6523;49.758;6.120;2023-06-10T11:43:42;5.20;;;4.70;;
12910;SDS011;6523;49.758;6.120;2023-06-10T11:46:08;5.20;;;4.87;;
12910;SDS011;6523;49.758;6.120;2023-06-10T11:48:34;4.87;;;4.47;;
12910;SDS011;6523;49.758;6.120;2023-06-10T11:51:00;5.53;;;4.93;;
12910;SDS011;6523;49.758;6.120;2023-06-10T11:53:25;4.67;;;4.37;;
12910;SDS011;6523;49.758;6.120;2023-06-10T11:55:51;5.10;;;4.70;;
12910;SDS011;6523;49.758;6.120;2023-06-10T11:58:18;6.10;;;4.60;;
12910;SDS011;6523;49.758;6.120;2023-06-10T12:00:45;4.90;;;4.50;;
12910;SDS011;6523;49.758;6.120;2023-06-10T12:03:16;5.25;;;4.20;;
12910;SDS011;6523;49.758;6.120;2023-06-10T12:05:58;5.72;;;4.85;;
12910;SDS011;6523;49.758;6.120;2023-06-10T12:08:25;5.00;;;4.60;;
12910;SDS011;6523;49.758;6.120;2023-06-10T12:10:51;5.07;;;4.68;;
12910;SDS011;6523;49.758;6.120;2023-06-10T12:13:17;5.03;;;4.57;;
12910;SDS011;6523;49.758;6.120;2023-06-10T12:15:43;4.53;;;4.17;;
12910;SDS011;6523;49.758;6.120;2023-06-10T12:18:17;4.65;;;4.35;;
12910;SDS011;6523;49.758;6.120;2023-06-10T12:20:49;4.53;;;4.20;;
12910;SDS011;6523;49.758;6.120;2023-06-10T12:23:16;4.28;;;3.97;;
12910;SDS011;6523;49.758;6.120;2023-06-10T12:25:52;4.75;;;4.20;;
12910;SDS011;6523;49.758;6.120;2023-06-10T12:28:22;5.23;;;4.40;;
12910;SDS011;6523;49.758;6.120;2023-06-10T12:30:49;6.03;;;4.32;;
12910;SDS011;6523;49.758;6.120;2023-06-10T12:33:21;4.60;;;4.20;;
12910;SDS011;6523;49.758;6.120;2023-06-10T12:35:50;4.83;;;4.33;;
12910;SDS011;6523;49.758;6.120;2023-06-10T12:38:24;4.47;;;4.07;;
12910;SDS011;6523;49.758;6.120;2023-06-10T12:40:52;4.67;;;3.90;;
12910;SDS011;6523;49.758;6.120;2023-06-10T12:43:22;4.40;;;4.00;;
12910;SDS011;6523;49.758;6.120;2023-06-10T12:45:49;4.45;;;4.05;;
12910;SDS011;6523;49.758;6.120;2023-06-10T12:48:22;4.47;;;4.07;;
12910;SDS011;6523;49.758;6.120;2023-06-10T12:50:55;3.63;;;3.42;;
12910;SDS011;6523;49.758;6.120;2023-06-10T12:53:22;3.80;;;3.50;;
12910;SDS011;6523;49.758;6.120;2023-06-10T12:55:49;3.90;;;3.55;;
12910;SDS011;6523;49.758;6.120;2023-06-10T12:58:15;5.28;;;3.45;;
12910;SDS011;6523;49.758;6.120;2023-06-10T13:00:40;4.65;;;3.40;;
12910;SDS011;6523;49.758;6.120;2023-06-10T13:03:07;3.40;;;3.20;;
12910;SDS011;6523;49.758;6.120;2023-06-10T13:05:37;4.13;;;3.22;;
12910;SDS011;6523;49.758;6.120;2023-06-10T13:08:04;3.35;;;3.15;;
12910;SDS011;6523;49.758;6.120;2023-06-10T13:10:35;4.25;;;3.22;;
12910;SDS011;6523;49.758;6.120;2023-06-10T13:13:01;3.53;;;3.25;;
12910;SDS011;6523;49.758;6.120;2023-06-10T13:15:30;4.05;;;3.70;;
12910;SDS011;6523;49.758;6.120;2023-06-10T13:17:57;3.80;;;3.50;;
12910;SDS011;6523;49.758;6.120;2023-06-10T13:20:23;3.90;;;3.60;;
12910;SDS011;6523;49.758;6.120;2023-06-10T13:22:49;3.47;;;3.28;;
12910;SDS011;6523;49.758;6.120;2023-06-10T13:25:14;4.05;;;3.65;;
12910;SDS011;6523;49.758;6.120;2023-06-10T13:27:40;3.38;;;3.17;;
12910;SDS011;6523;49.758;6.120;2023-06-10T13:30:07;4.15;;;3.13;;
12910;SDS011;6523;49.758;6.120;2023-06-10T13:32:35;3.95;;;3.17;;
12910;SDS011;6523;49.758;6.120;2023-06-10T13:35:01;3.92;;;3.50;;
12910;SDS011;6523;49.758;6.120;2023-06-10T13:37:26;3.70;;;3.40;;
12910;SDS011;6523;49.758;6.120;2023-06-10T13:39:52;3.90;;;3.60;;
12910;SDS011;6523;49.758;6.120;2023-06-10T13:42:18;4.85;;;3.70;;
12910;SDS011;6523;49.758;6.120;2023-06-10T13:44:43;4.35;;;3.92;;
12910;SDS011;6523;49.758;6.120;2023-06-10T13:47:09;4.07;;;3.42;;
12910;SDS011;6523;49.758;6.120;2023-06-10T13:49:34;4.28;;;3.90;;
12910;SDS011;6523;49.758;6.120;2023-06-10T13:52:00;3.92;;;3.63;;
12910;SDS011;6523;49.758;6.120;2023-06-10T13:54:26;3.78;;;3.35;;
12910;SDS011;6523;49.758;6.120;2023-06-10T13:56:52;4.13;;;3.40;;
12910;SDS011;6523;49.758;6.120;2023-06-10T13:59:18;3.95;;;3.55;;
12910;SDS011;6523;49.758;6.120;2023-06-10T14:01:45;4.10;;;3.70;;
12910;SDS011;6523;49.758;6.120;2023-06-10T14:04:10;4.78;;;3.70;;
12910;SDS011;6523;49.758;6.120;2023-06-10T14:06:36;3.70;;;3.50;;
12910;SDS011;6523;49.758;6.120;2023-06-10T14:09:01;4.40;;;4.05;;
12910;SDS011;6523;49.758;6.120;2023-06-10T14:11:27;4.47;;;4.07;;
12910;SDS011;6523;49.758;6.120;2023-06-10T14:13:53;3.65;;;3.40;;
12910;SDS011;6523;49.758;6.120;2023-06-10T14:16:21;3.85;;;3.53;;
12910;SDS011;6523;49.758;6.120;2023-06-10T14:18:47;3.50;;;3.30;;
12910;SDS011;6523;49.758;6.120;2023-06-10T14:21:12;3.75;;;3.45;;
12910;SDS011;6523;49.758;6.120;2023-06-10T14:23:38;3.83;;;3.53;;
12910;SDS011;6523;49.758;6.120;2023-06-10T14:26:03;3.95;;;3.65;;
12910;SDS011;6523;49.758;6.120;2023-06-10T14:28:31;5.80;;;3.63;;
12910;SDS011;6523;49.758;6.120;2023-06-10T14:30:56;3.80;;;3.53;;
12910;SDS011;6523;49.758;6.120;2023-06-10T14:33:22;4.35;;;3.95;;
12910;SDS011;6523;49.758;6.120;2023-06-10T14:35:48;4.10;;;3.80;;
12910;SDS011;6523;49.758;6.120;2023-06-10T14:38:13;3.60;;;3.30;;
12910;SDS011;6523;49.758;6.120;2023-06-10T14:40:39;4.20;;;3.80;;
12910;SDS011;6523;49.758;6.120;2023-06-10T14:43:05;4.20;;;3.90;;
12910;SDS011;6523;49.758;6.120;2023-06-10T14:45:35;4.00;;;3.70;;
12910;SDS011;6523;49.758;6.120;2023-06-10T14:48:01;4.22;;;3.83;;
12910;SDS011;6523;49.758;6.120;2023-06-10T14:50:27;4.15;;;3.75;;
12910;SDS011;6523;49.758;6.120;2023-06-10T14:52:53;4.75;;;4.32;;
12910;SDS011;6523;49.758;6.120;2023-06-10T14:55:18;4.47;;;4.05;;
12910;SDS011;6523;49.758;6.120;2023-06-10T14:57:45;4.30;;;3.90;;
12910;SDS011;6523;49.758;6.120;2023-06-10T15:00:10;4.50;;;4.13;;
12910;SDS011;6523;49.758;6.120;2023-06-10T15:02:40;4.82;;;4.40;;
12910;SDS011;6523;49.758;6.120;2023-06-10T15:05:05;4.50;;;4.18;;
12910;SDS011;6523;49.758;6.120;2023-06-10T15:07:31;7.93;;;4.93;;
12910;SDS011;6523;49.758;6.120;2023-06-10T15:09:57;4.55;;;4.15;;
12910;SDS011;6523;49.758;6.120;2023-06-10T15:12:22;4.80;;;4.43;;
12910;SDS011;6523;49.758;6.120;2023-06-10T15:14:49;5.30;;;4.10;;